Enter the Airport ICAO Code

Search by Airport or City

Current Weather

PAEN | Kenai Municipal Airport

Kenai, Alaska, United States

Last Update 29 Minutes Ago

Light Rain

Temperature of 10 ºC

Light to Moderate Winds from SouthWest

Temperature

10 ºC

Dew Point Temperature

08 ºC

Relative Humidity

87.42 %

Wind Direction

SouthWest (210º, Without Significant Variations)

Wind Velocity

11 km/h (06 kt)

Gusts

None

Visibility

Greater than 10 Miles

Sea Level Pressure

30.05 inHg (Inches of Mercury)

Layers of Clouds

60% to 90% of Sky Covered from 2286 mts (7500 ft) Above Ground Level.

90% to 100% of Sky Covered from 2743 mts (9000 ft) Above Ground Level.

METAR PAEN 191053Z AUTO 21006KT 10SM -RA BKN075 OVC090 10/08 A3005 RMK AO2 RAB53 SLP177 P0000 T01000083 TSNO $

Weather Forecast

PAEN | Kenai Municipal Airport

Kenai, Alaska, United States

Forecast valid for the next 19 Hours

From now on it is expected:

Mostly Cloudy Sky

Light to Moderate Winds from SouthWest

Maximum Temperature

No Data

Minimum Temperature

No Data

TAF PAEN 190536Z 1906/2006 22008KT P6SM SCT050 BKN080